Terminal Aerodrome Forecast
Issued by NWS

Home | Current Version | Previous Version | Text Only | Print | Product List | Glossary On
Versions: 1 2 3 4 5 6 7 8 9 10 11 12 13 14 15 16 17 18 19
118
FTUS46 KEKA 232332
TAFCEC
TAF
KCEC 232332Z 2400/2424 33009KT P6SM FEW007
     FM240400 22010G16KT 6SM BR SCT005
     FM240900 08005KT 4SM BR OVC003
     FM241200 36008KT 2SM BR OVC003
     FM241800 33015G20KT P6SM SKC=

USA.gov is the U.S. government's official web portal to all federal, state and local government web resources and services.